Time,TemperatureF,DewpointF,PressureIn,WindDirection,WindDirectionDegrees,WindSpeedMPH,WindSpeedGustMPH,Humidity,HourlyPrecipIn,Conditions,Clouds,dailyrainin,SoftwareType,DateUTC
2013-08-14 00:01:00,78.1,74.9,29.99,NNW,333,0.0,15.0,90,0.00,,---,0.00,VWS V12.08,2013-08-14 04:01:00,
2013-08-14 00:03:00,78.1,74.9,29.99,NNW,333,0.0,15.0,90,0.00,,---,0.00,VWS V12.08,2013-08-14 04:03:00,
2013-08-14 00:08:00,78.1,74.6,29.98,NNW,333,0.0,15.0,89,0.00,,---,0.00,VWS V12.08,2013-08-14 04:08:00,
2013-08-14 00:13:00,78.0,74.5,29.99,NNW,333,0.0,15.0,89,0.00,,---,0.00,VWS V12.08,2013-08-14 04:13:00,
2013-08-14 00:18:00,77.9,74.7,29.98,NNW,333,0.0,15.0,90,0.00,,---,0.00,VWS V12.08,2013-08-14 04:18:00,
2013-08-14 00:23:00,77.9,74.7,29.98,NNW,333,0.0,15.0,90,0.00,,---,0.00,VWS V12.08,2013-08-14 04:23:00,
2013-08-14 00:28:00,77.9,74.7,29.98,NNW,333,0.0,15.0,90,0.00,,---,0.00,VWS V12.08,2013-08-14 04:28:00,
2013-08-14 00:33:00,77.9,74.7,29.98,NNW,333,0.0,15.0,90,0.00,,---,0.00,VWS V12.08,2013-08-14 04:33:00,
2013-08-14 00:38:00,77.8,74.6,29.98,NNW,333,2.0,15.0,90,0.00,,---,0.00,VWS V12.08,2013-08-14 04:38:00,
2013-08-14 00:43:00,77.7,74.5,29.98,NNW,333,0.0,15.0,90,0.00,,---,0.00,VWS V12.08,2013-08-14 04:43:00,
2013-08-14 00:48:00,77.7,74.5,29.98,NNW,333,0.0,15.0,90,0.00,,---,0.00,VWS V12.08,2013-08-14 04:48:00,
2013-08-14 00:53:00,77.7,74.9,29.98,NNW,333,0.0,15.0,91,0.00,,---,0.00,VWS V12.08,2013-08-14 04:53:00,
2013-08-14 00:58:00,77.8,75.0,29.97,NNW,333,0.0,15.0,91,0.00,,---,0.00,VWS V12.08,2013-08-14 04:58:00,
2013-08-14 01:03:00,77.9,75.1,29.97,NNW,333,0.0,15.0,91,0.00,,---,0.00,VWS V12.08,2013-08-14 05:03:00,
2013-08-14 01:08:00,78.0,75.2,29.97,NNW,333,0.0,15.0,91,0.00,,---,0.00,VWS V12.08,2013-08-14 05:08:00,
2013-08-14 01:13:00,78.1,75.3,29.97,NNW,333,0.0,15.0,91,0.00,,---,0.00,VWS V12.08,2013-08-14 05:13:00,
2013-08-14 01:18:00,78.2,75.4,29.97,NNW,333,0.0,15.0,91,0.00,,---,0.00,VWS V12.08,2013-08-14 05:18:00,
2013-08-14 01:23:00,78.2,75.4,29.97,NNW,333,0.0,15.0,91,0.00,,---,0.00,VWS V12.08,2013-08-14 05:23:00,
2013-08-14 01:28:00,78.1,75.3,29.97,NNW,333,0.0,15.0,91,0.00,,---,0.00,VWS V12.08,2013-08-14 05:28:00,
2013-08-14 01:33:00,78.1,75.3,29.97,NNW,333,0.0,15.0,91,0.00,,---,0.00,VWS V12.08,2013-08-14 05:33:00,
2013-08-14 01:38:00,78.0,75.2,29.96,NNW,333,0.0,15.0,91,0.00,,---,0.00,VWS V12.08,2013-08-14 05:38:00,
2013-08-14 01:43:00,77.9,75.1,29.96,NNW,333,0.0,15.0,91,0.00,,---,0.00,VWS V12.08,2013-08-14 05:43:00,
2013-08-14 01:48:00,77.7,74.9,29.96,NNW,333,0.0,15.0,91,0.00,,---,0.00,VWS V12.08,2013-08-14 05:48:00,
2013-08-14 01:53:00,77.6,74.8,29.96,NNW,333,0.0,15.0,91,0.00,,---,0.00,VWS V12.08,2013-08-14 05:53:00,
2013-08-14 01:58:00,77.5,74.7,29.96,NNW,333,0.0,15.0,91,0.00,,---,0.00,VWS V12.08,2013-08-14 05:58:00,
2013-08-14 02:03:00,77.3,74.5,29.96,NNW,333,0.0,15.0,91,0.00,,---,0.00,VWS V12.08,2013-08-14 06:03:00,
2013-08-14 02:08:00,77.2,74.4,29.95,NNW,333,0.0,15.0,91,0.00,,---,0.00,VWS V12.08,2013-08-14 06:08:00,
2013-08-14 02:13:00,77.1,74.3,29.95,NNW,333,0.0,15.0,91,0.00,,---,0.00,VWS V12.08,2013-08-14 06:13:00,
2013-08-14 02:18:00,76.9,74.1,29.95,NNW,333,0.0,15.0,91,0.00,,---,0.00,VWS V12.08,2013-08-14 06:18:00,
2013-08-14 02:23:00,76.7,74.2,29.94,NNW,333,0.0,15.0,92,0.00,,---,0.00,VWS V12.08,2013-08-14 06:23:00,
2013-08-14 02:28:00,76.7,74.2,29.94,NNW,333,0.0,15.0,92,0.00,,---,0.00,VWS V12.08,2013-08-14 06:28:00,
2013-08-14 02:33:00,76.5,74.0,29.94,NNW,333,0.0,15.0,92,0.00,,---,0.00,VWS V12.08,2013-08-14 06:33:00,
2013-08-14 02:38:00,76.3,73.8,29.94,NNW,333,0.0,15.0,92,0.00,,---,0.00,VWS V12.08,2013-08-14 06:38:00,
2013-08-14 02:43:00,76.2,73.7,29.94,NNW,333,0.0,15.0,92,0.00,,---,0.00,VWS V12.08,2013-08-14 06:43:00,
2013-08-14 02:48:00,76.1,73.9,29.94,NNW,333,0.0,15.0,93,0.00,,---,0.00,VWS V12.08,2013-08-14 06:48:00,
2013-08-14 02:53:00,76.0,73.8,29.93,NNW,333,0.0,15.0,93,0.00,,---,0.00,VWS V12.08,2013-08-14 06:53:00,
2013-08-14 02:58:00,75.8,73.6,29.93,NNW,333,0.0,15.0,93,0.00,,---,0.00,VWS V12.08,2013-08-14 06:58:00,
2013-08-14 03:03:00,75.7,73.5,29.93,NNW,333,0.0,15.0,93,0.00,,---,0.00,VWS V12.08,2013-08-14 07:03:00,
2013-08-14 03:08:00,75.8,73.9,29.93,NNW,333,0.0,15.0,94,0.00,,---,0.00,VWS V12.08,2013-08-14 07:08:00,
2013-08-14 03:13:00,75.8,73.9,29.93,NNW,333,0.0,15.0,94,0.00,,---,0.00,VWS V12.08,2013-08-14 07:13:00,
2013-08-14 03:18:00,75.7,73.5,29.93,NNW,333,0.0,15.0,93,0.00,,---,0.00,VWS V12.08,2013-08-14 07:18:00,
2013-08-14 03:23:00,75.6,73.8,29.93,NNW,333,0.0,15.0,94,0.00,,---,0.00,VWS V12.08,2013-08-14 07:23:00,
2013-08-14 03:28:00,75.5,73.3,29.93,NNW,333,0.0,15.0,93,0.00,,---,0.00,VWS V12.08,2013-08-14 07:28:00,
2013-08-14 03:33:00,75.5,73.7,29.93,NNW,333,0.0,15.0,94,0.00,,---,0.00,VWS V12.08,2013-08-14 07:33:00,
2013-08-14 03:38:00,75.5,73.7,29.93,NNW,333,0.0,15.0,94,0.00,,---,0.00,VWS V12.08,2013-08-14 07:38:00,
2013-08-14 03:43:00,75.5,73.7,29.93,NNW,333,0.0,15.0,94,0.00,,---,0.00,VWS V12.08,2013-08-14 07:43:00,
2013-08-14 03:48:00,75.3,73.5,29.93,NNW,333,0.0,15.0,94,0.00,,---,0.00,VWS V12.08,2013-08-14 07:48:00,
2013-08-14 03:53:00,75.2,73.4,29.93,NNW,333,0.0,15.0,94,0.00,,---,0.00,VWS V12.08,2013-08-14 07:53:00,
2013-08-14 03:58:00,75.1,73.3,29.93,NNW,333,0.0,15.0,94,0.00,,---,0.00,VWS V12.08,2013-08-14 07:58:00,
2013-08-14 04:03:00,75.1,73.3,29.92,NNW,333,0.0,15.0,94,0.00,,---,0.00,VWS V12.08,2013-08-14 08:03:00,
2013-08-14 04:08:00,75.1,73.3,29.92,NNW,333,0.0,15.0,94,0.00,,---,0.00,VWS V12.08,2013-08-14 08:08:00,
2013-08-14 04:13:00,74.9,73.1,29.92,NNW,333,0.0,15.0,94,0.00,,---,0.00,VWS V12.08,2013-08-14 08:13:00,
2013-08-14 04:18:00,74.8,73.0,29.92,NNW,333,0.0,15.0,94,0.00,,---,0.00,VWS V12.08,2013-08-14 08:18:00,
2013-08-14 04:23:00,74.8,73.0,29.92,NNW,333,0.0,15.0,94,0.00,,---,0.00,VWS V12.08,2013-08-14 08:23:00,
2013-08-14 04:28:00,74.7,72.9,29.92,NNW,333,0.0,15.0,94,0.00,,---,0.00,VWS V12.08,2013-08-14 08:28:00,
2013-08-14 04:33:00,74.6,72.8,29.92,NNW,333,0.0,15.0,94,0.00,,---,0.00,VWS V12.08,2013-08-14 08:33:00,
2013-08-14 04:38:00,74.6,72.8,29.92,NNW,333,0.0,15.0,94,0.00,,---,0.00,VWS V12.08,2013-08-14 08:38:00,
2013-08-14 04:43:00,74.5,72.7,29.92,NNW,333,0.0,15.0,94,0.00,,---,0.00,VWS V12.08,2013-08-14 08:43:00,
2013-08-14 04:48:00,74.4,72.6,29.92,NNW,333,0.0,15.0,94,0.00,,---,0.00,VWS V12.08,2013-08-14 08:48:00,
2013-08-14 04:53:00,74.3,72.5,29.92,NNW,333,0.0,15.0,94,0.00,,---,0.00,VWS V12.08,2013-08-14 08:53:00,
2013-08-14 04:58:00,74.2,72.4,29.92,NNW,333,0.0,15.0,94,0.00,,---,0.00,VWS V12.08,2013-08-14 08:58:00,
2013-08-14 05:03:00,74.1,72.3,29.92,NNW,333,0.0,15.0,94,0.00,,---,0.00,VWS V12.08,2013-08-14 09:03:00,
2013-08-14 05:08:00,74.1,72.6,29.92,NNW,333,0.0,15.0,95,0.00,,---,0.00,VWS V12.08,2013-08-14 09:08:00,
2013-08-14 05:13:00,74.1,72.6,29.92,NNW,333,0.0,15.0,95,0.00,,---,0.00,VWS V12.08,2013-08-14 09:13:00,
2013-08-14 05:18:00,74.0,72.5,29.92,NNW,333,0.0,15.0,95,0.00,,---,0.00,VWS V12.08,2013-08-14 09:18:00,
2013-08-14 05:23:00,73.9,72.1,29.92,NNW,333,0.0,15.0,94,0.00,,---,0.00,VWS V12.08,2013-08-14 09:23:00,
2013-08-14 05:28:00,73.8,72.3,29.92,NNW,333,0.0,15.0,95,0.00,,---,0.00,VWS V12.08,2013-08-14 09:28:00,
2013-08-14 05:33:00,73.7,72.2,29.91,NNW,333,0.0,15.0,95,0.00,,---,0.00,VWS V12.08,2013-08-14 09:33:00,
2013-08-14 05:38:00,73.8,72.3,29.92,NNW,333,0.0,15.0,95,0.00,,---,0.00,VWS V12.08,2013-08-14 09:38:00,
2013-08-14 05:43:00,73.8,72.3,29.92,NNW,333,0.0,15.0,95,0.00,,---,0.00,VWS V12.08,2013-08-14 09:43:00,
2013-08-14 05:48:00,73.6,72.1,29.92,NNW,333,0.0,15.0,95,0.00,,---,0.00,VWS V12.08,2013-08-14 09:48:00,
2013-08-14 05:53:00,73.4,71.9,29.91,NNW,333,0.0,15.0,95,0.00,,---,0.00,VWS V12.08,2013-08-14 09:53:00,
2013-08-14 05:58:00,73.2,71.7,29.91,NNW,333,0.0,15.0,95,0.00,,---,0.00,VWS V12.08,2013-08-14 09:58:00,
2013-08-14 06:03:00,73.1,71.6,29.92,NNW,333,0.0,15.0,95,0.00,,---,0.00,VWS V12.08,2013-08-14 10:03:00,
2013-08-14 06:08:00,73.0,71.5,29.92,NNW,333,0.0,15.0,95,0.00,,---,0.00,VWS V12.08,2013-08-14 10:08:00,
2013-08-14 06:13:00,73.1,71.6,29.92,NNW,333,0.0,15.0,95,0.00,,---,0.00,VWS V12.08,2013-08-14 10:13:00,
2013-08-14 06:18:00,73.1,71.6,29.92,NNW,333,0.0,15.0,95,0.00,,---,0.00,VWS V12.08,2013-08-14 10:18:00,
2013-08-14 06:23:00,73.0,71.5,29.92,NNW,333,0.0,15.0,95,0.00,,---,0.00,VWS V12.08,2013-08-14 10:23:00,
2013-08-14 06:28:00,73.1,71.9,29.92,NNW,333,0.0,15.0,96,0.00,,---,0.00,VWS V12.08,2013-08-14 10:28:00,
2013-08-14 06:33:00,73.0,71.5,29.92,NNW,333,0.0,15.0,95,0.00,,---,0.00,VWS V12.08,2013-08-14 10:33:00,
2013-08-14 06:38:00,73.0,71.8,29.93,NNW,333,0.0,15.0,96,0.00,,---,0.00,VWS V12.08,2013-08-14 10:38:00,
2013-08-14 06:43:00,73.0,71.8,29.93,NNW,333,0.0,15.0,96,0.00,,---,0.00,VWS V12.08,2013-08-14 10:43:00,
2013-08-14 06:48:00,73.1,71.9,29.93,NNW,333,0.0,15.0,96,0.00,,---,0.00,VWS V12.08,2013-08-14 10:48:00,
2013-08-14 06:53:00,73.3,72.1,29.93,NNW,333,0.0,15.0,96,0.00,,---,0.00,VWS V12.08,2013-08-14 10:53:00,
2013-08-14 06:58:00,73.4,72.2,29.93,NNW,333,0.0,15.0,96,0.00,,---,0.00,VWS V12.08,2013-08-14 10:58:00,
2013-08-14 07:03:00,73.6,72.4,29.94,NNW,333,0.0,15.0,96,0.00,,---,0.00,VWS V12.08,2013-08-14 11:03:00,
2013-08-14 07:08:00,73.7,72.5,29.93,NNW,333,0.0,15.0,96,0.00,,---,0.00,VWS V12.08,2013-08-14 11:08:00,
2013-08-14 07:13:00,73.7,72.5,29.94,NNW,333,0.0,15.0,96,0.00,,---,0.00,VWS V12.08,2013-08-14 11:13:00,
2013-08-14 07:18:00,73.6,72.4,29.94,NNW,333,0.0,15.0,96,0.00,,---,0.00,VWS V12.08,2013-08-14 11:18:00,
2013-08-14 07:23:00,73.5,72.3,29.94,NNW,333,0.0,15.0,96,0.00,,---,0.00,VWS V12.08,2013-08-14 11:23:00,
2013-08-14 07:28:00,73.6,72.4,29.94,NNW,333,0.0,15.0,96,0.00,,---,0.00,VWS V12.08,2013-08-14 11:28:00,
2013-08-14 07:33:00,73.7,72.5,29.94,NNW,333,0.0,15.0,96,0.00,,---,0.00,VWS V12.08,2013-08-14 11:33:00,
2013-08-14 07:38:00,73.9,73.0,29.94,NNW,333,0.0,15.0,97,0.00,,---,0.00,VWS V12.08,2013-08-14 11:38:00,
2013-08-14 07:43:00,74.3,73.4,29.94,NNW,333,0.0,15.0,97,0.00,,---,0.00,VWS V12.08,2013-08-14 11:43:00,
2013-08-14 07:48:00,74.7,73.8,29.94,NNW,333,0.0,15.0,97,0.00,,---,0.00,VWS V12.08,2013-08-14 11:48:00,
2013-08-14 07:53:00,75.1,74.2,29.95,NNW,333,0.0,15.0,97,0.00,,---,0.00,VWS V12.08,2013-08-14 11:53:00,
2013-08-14 07:58:00,75.6,74.7,29.95,NNW,333,0.0,15.0,97,0.00,,---,0.00,VWS V12.08,2013-08-14 11:58:00,
2013-08-14 08:03:00,76.2,75.3,29.94,NNW,333,0.0,15.0,97,0.00,,---,0.00,VWS V12.08,2013-08-14 12:03:00,
2013-08-14 08:08:00,76.7,75.8,29.95,NNW,333,0.0,15.0,97,0.00,,---,0.00,VWS V12.08,2013-08-14 12:08:00,
2013-08-14 08:13:00,77.2,76.3,29.95,NNW,333,0.0,15.0,97,0.00,,---,0.00,VWS V12.08,2013-08-14 12:13:00,
2013-08-14 08:18:00,78.1,77.2,29.95,NNW,333,0.0,15.0,97,0.00,,---,0.00,VWS V12.08,2013-08-14 12:18:00,
2013-08-14 08:23:00,78.8,77.9,29.94,NNW,333,0.0,15.0,97,0.00,,---,0.00,VWS V12.08,2013-08-14 12:23:00,
2013-08-14 08:28:00,79.3,78.1,29.95,NNW,333,0.0,15.0,96,0.00,,---,0.00,VWS V12.08,2013-08-14 12:28:00,
2013-08-14 08:33:00,79.8,78.2,29.95,NNW,333,1.0,15.0,95,0.00,,---,0.00,VWS V12.08,2013-08-14 12:33:00,
2013-08-14 08:38:00,80.3,78.7,29.95,NNW,333,0.0,15.0,95,0.00,,---,0.00,VWS V12.08,2013-08-14 12:38:00,
2013-08-14 08:43:00,80.8,78.6,29.95,NNW,333,0.0,15.0,93,0.00,,---,0.00,VWS V12.08,2013-08-14 12:43:00,
2013-08-14 08:48:00,81.2,78.7,29.94,NNW,333,0.0,15.0,92,0.00,,---,0.00,VWS V12.08,2013-08-14 12:48:00,
2013-08-14 08:53:00,81.7,78.8,29.95,NNW,333,0.0,15.0,91,0.00,,---,0.00,VWS V12.08,2013-08-14 12:53:00,
2013-08-14 08:58:00,82.2,79.0,29.95,NNW,333,0.0,15.0,90,0.00,,---,0.00,VWS V12.08,2013-08-14 12:58:00,
2013-08-14 09:03:00,82.8,79.2,29.95,NNW,333,0.0,15.0,89,0.00,,---,0.00,VWS V12.08,2013-08-14 13:03:00,
2013-08-14 09:08:00,83.0,79.4,29.95,NW,309,0.0,15.0,89,0.00,,---,0.00,VWS V12.08,2013-08-14 13:08:00,
2013-08-14 09:13:00,83.2,78.9,29.95,WNW,294,1.0,15.0,87,0.00,,---,0.00,VWS V12.08,2013-08-14 13:13:00,
2013-08-14 09:18:00,83.5,79.6,29.95,WNW,290,0.0,15.0,88,0.00,,---,0.00,VWS V12.08,2013-08-14 13:18:00,
2013-08-14 09:23:00,84.0,79.7,29.95,WNW,290,0.0,15.0,87,0.00,,---,0.00,VWS V12.08,2013-08-14 13:23:00,
2013-08-14 09:28:00,84.4,80.1,29.95,WNW,290,0.0,15.0,87,0.00,,---,0.00,VWS V12.08,2013-08-14 13:28:00,
2013-08-14 09:33:00,84.6,79.9,29.95,WNW,289,0.0,15.0,86,0.00,,---,0.00,VWS V12.08,2013-08-14 13:33:00,
2013-08-14 09:38:00,84.7,79.3,29.95,WSW,254,3.0,15.0,84,0.00,,---,0.00,VWS V12.08,2013-08-14 13:38:00,
2013-08-14 09:43:00,85.0,80.0,29.95,WSW,254,0.0,15.0,85,0.00,,---,0.00,VWS V12.08,2013-08-14 13:43:00,
2013-08-14 09:48:00,85.4,80.0,29.95,WSW,254,3.0,15.0,84,0.00,,---,0.00,VWS V12.08,2013-08-14 13:48:00,
2013-08-14 09:53:00,85.9,80.1,29.95,WSW,252,1.0,15.0,83,0.00,,---,0.00,VWS V12.08,2013-08-14 13:53:00,
2013-08-14 09:58:00,86.3,80.2,29.95,WSW,252,0.0,15.0,82,0.00,,---,0.00,VWS V12.08,2013-08-14 13:58:00,
2013-08-14 10:03:00,86.3,79.8,29.95,WSW,253,0.0,15.0,81,0.00,,---,0.00,VWS V12.08,2013-08-14 14:03:00,
2013-08-14 10:08:00,86.2,80.1,29.95,WSW,253,1.0,15.0,82,0.00,,---,0.00,VWS V12.08,2013-08-14 14:08:00,
2013-08-14 10:13:00,86.3,79.8,29.95,WSW,257,1.0,15.0,81,0.00,,---,0.00,VWS V12.08,2013-08-14 14:13:00,
2013-08-14 10:18:00,86.6,80.1,29.95,WSW,256,1.0,15.0,81,0.00,,---,0.00,VWS V12.08,2013-08-14 14:18:00,
2013-08-14 10:23:00,87.2,80.3,29.96,West,266,2.0,15.0,80,0.00,,---,0.00,VWS V12.08,2013-08-14 14:23:00,
2013-08-14 10:28:00,87.2,79.9,29.95,West,265,3.0,15.0,79,0.00,,---,0.00,VWS V12.08,2013-08-14 14:28:00,
2013-08-14 10:33:00,87.4,79.3,29.95,West,273,1.0,15.0,77,0.00,,---,0.00,VWS V12.08,2013-08-14 14:33:00,
2013-08-14 10:38:00,87.6,79.9,29.96,West,269,0.0,15.0,78,0.00,,---,0.00,VWS V12.08,2013-08-14 14:38:00,
2013-08-14 10:43:00,87.8,79.3,29.96,West,267,2.0,15.0,76,0.00,,---,0.00,VWS V12.08,2013-08-14 14:43:00,
2013-08-14 10:48:00,88.2,79.7,29.96,WNW,290,4.0,15.0,76,0.00,,---,0.00,VWS V12.08,2013-08-14 14:48:00,
2013-08-14 10:53:00,87.9,79.4,29.96,WNW,290,0.0,15.0,76,0.00,,---,0.00,VWS V12.08,2013-08-14 14:53:00,
2013-08-14 10:58:00,87.9,78.6,29.96,West,274,1.0,15.0,74,0.00,,---,0.00,VWS V12.08,2013-08-14 14:58:00,
2013-08-14 11:03:00,88.3,79.4,29.96,West,270,4.0,15.0,75,0.00,,---,0.00,VWS V12.08,2013-08-14 15:03:00,
2013-08-14 11:08:00,88.5,79.2,29.96,West,269,3.0,15.0,74,0.00,,---,0.00,VWS V12.08,2013-08-14 15:08:00,
2013-08-14 11:13:00,89.0,79.6,29.96,West,267,1.0,15.0,74,0.00,,---,0.00,VWS V12.08,2013-08-14 15:13:00,
2013-08-14 11:18:00,89.3,79.9,29.96,West,261,3.0,15.0,74,0.00,,---,0.00,VWS V12.08,2013-08-14 15:18:00,
2013-08-14 11:23:00,89.8,78.7,29.96,WSW,256,2.0,15.0,70,0.00,,---,0.00,VWS V12.08,2013-08-14 15:23:00,
2013-08-14 11:28:00,89.9,79.2,29.96,WSW,256,3.0,15.0,71,0.00,,---,0.00,VWS V12.08,2013-08-14 15:28:00,
2013-08-14 11:33:00,89.9,78.4,29.96,WSW,257,2.0,15.0,69,0.00,,---,0.00,VWS V12.08,2013-08-14 15:33:00,
2013-08-14 11:38:00,90.2,79.1,29.96,WSW,258,0.0,15.0,70,0.00,,---,0.00,VWS V12.08,2013-08-14 15:38:00,
2013-08-14 11:43:00,90.4,78.8,29.95,NW,309,0.0,15.0,69,0.00,,---,0.00,VWS V12.08,2013-08-14 15:43:00,
2013-08-14 11:48:00,90.4,77.9,29.96,West,275,0.0,15.0,67,0.00,,---,0.00,VWS V12.08,2013-08-14 15:48:00,
2013-08-14 11:54:00,90.6,77.7,29.95,West,280,2.0,15.0,66,0.00,,---,0.00,VWS V12.08,2013-08-14 15:54:00,
2013-08-14 11:59:00,90.6,77.7,29.95,WSW,252,0.0,15.0,66,0.00,,---,0.00,VWS V12.08,2013-08-14 15:59:00,
2013-08-14 12:04:00,90.8,78.8,29.95,West,262,1.0,15.0,68,0.00,,---,0.00,VWS V12.08,2013-08-14 16:04:00,
2013-08-14 12:09:00,91.0,79.0,29.95,West,262,2.0,15.0,68,0.00,,---,0.00,VWS V12.08,2013-08-14 16:09:00,
2013-08-14 12:14:00,91.2,78.7,29.94,West,262,3.0,15.0,67,0.00,,---,0.00,VWS V12.08,2013-08-14 16:14:00,
2013-08-14 12:19:00,91.2,78.7,29.95,WSW,250,3.0,15.0,67,0.00,,---,0.00,VWS V12.08,2013-08-14 16:19:00,
2013-08-14 12:24:00,91.4,79.8,29.95,West,261,4.0,15.0,69,0.00,,---,0.00,VWS V12.08,2013-08-14 16:24:00,
2013-08-14 12:29:00,91.3,77.4,29.95,SSW,195,7.0,15.0,64,0.00,,---,0.00,VWS V12.08,2013-08-14 16:29:00,
2013-08-14 12:34:00,91.5,77.6,29.94,SW,223,6.0,15.0,64,0.00,,---,0.00,VWS V12.08,2013-08-14 16:34:00,
2013-08-14 12:39:00,91.6,78.6,29.94,SW,236,1.0,15.0,66,0.00,,---,0.00,VWS V12.08,2013-08-14 16:39:00,
2013-08-14 12:44:00,92.1,78.2,29.94,SW,225,7.0,15.0,64,0.00,,---,0.00,VWS V12.08,2013-08-14 16:44:00,
2013-08-14 12:49:00,92.1,78.2,29.93,SW,225,0.0,15.0,64,0.00,,---,0.00,VWS V12.08,2013-08-14 16:49:00,
2013-08-14 12:54:00,92.0,78.6,29.93,West,269,1.0,15.0,65,0.00,,---,0.00,VWS V12.08,2013-08-14 16:54:00,
2013-08-14 12:59:00,92.2,79.2,29.93,West,271,0.0,15.0,66,0.00,,---,0.00,VWS V12.08,2013-08-14 16:59:00,
2013-08-14 13:04:00,92.2,78.7,29.93,West,273,0.0,15.0,65,0.00,,---,0.00,VWS V12.08,2013-08-14 17:04:00,
2013-08-14 13:10:00,92.1,78.7,29.93,West,279,0.0,15.0,65,0.00,,---,0.00,VWS V12.08,2013-08-14 17:10:00,
2013-08-14 13:15:00,92.2,77.8,29.93,West,261,4.0,15.0,63,0.00,,---,0.00,VWS V12.08,2013-08-14 17:15:00,
2013-08-14 13:20:00,92.1,77.7,29.93,WNW,285,2.0,15.0,63,0.00,,---,0.00,VWS V12.08,2013-08-14 17:20:00,
2013-08-14 13:25:00,92.4,78.0,29.92,WSW,249,6.0,15.0,63,0.00,,---,0.00,VWS V12.08,2013-08-14 17:25:00,
2013-08-14 13:30:00,92.6,77.7,29.92,WSW,240,7.0,15.0,62,0.00,,---,0.00,VWS V12.08,2013-08-14 17:30:00,
2013-08-14 13:35:00,93.1,77.2,29.92,WSW,240,0.0,15.0,60,0.00,,---,0.00,VWS V12.08,2013-08-14 17:35:00,
2013-08-14 13:40:00,93.4,77.9,29.92,WSW,239,1.0,15.0,61,0.00,,---,0.00,VWS V12.08,2013-08-14 17:40:00,
2013-08-14 13:45:00,93.7,78.7,29.92,WSW,238,0.0,15.0,62,0.00,,---,0.00,VWS V12.08,2013-08-14 17:45:00,
2013-08-14 13:50:00,93.9,77.9,29.92,SW,228,6.0,15.0,60,0.00,,---,0.00,VWS V12.08,2013-08-14 17:50:00,
2013-08-14 13:55:00,93.9,77.9,29.92,SSW,206,2.0,15.0,60,0.00,,---,0.00,VWS V12.08,2013-08-14 17:55:00,
2013-08-14 14:00:00,94.0,77.5,29.92,SSW,204,2.0,15.0,59,0.00,,---,0.00,VWS V12.08,2013-08-14 18:00:00,
2013-08-14 14:05:00,94.1,77.6,29.92,SSW,204,0.0,15.0,59,0.00,,---,0.00,VWS V12.08,2013-08-14 18:05:00,
2013-08-14 14:11:00,94.4,79.4,29.91,SW,234,2.0,15.0,62,0.00,,---,0.00,VWS V12.08,2013-08-14 18:11:00,
2013-08-14 14:17:00,94.6,78.1,29.91,WSW,248,4.0,15.0,59,0.00,,---,0.00,VWS V12.08,2013-08-14 18:17:00,
2013-08-14 14:22:00,94.5,78.0,29.91,WSW,248,0.0,15.0,59,0.00,,---,0.00,VWS V12.08,2013-08-14 18:22:00,
2013-08-14 14:27:00,94.2,77.2,29.91,WSW,248,4.0,15.0,58,0.00,,---,0.00,VWS V12.08,2013-08-14 18:27:00,
2013-08-14 14:32:00,93.7,77.2,29.91,WSW,247,0.0,15.0,59,0.00,,---,0.00,VWS V12.08,2013-08-14 18:32:00,
2013-08-14 14:37:00,93.3,77.3,29.91,WSW,247,0.0,15.0,60,0.00,,---,0.00,VWS V12.08,2013-08-14 18:37:00,
2013-08-14 14:42:00,93.3,78.3,29.91,WSW,247,0.0,15.0,62,0.00,,---,0.00,VWS V12.08,2013-08-14 18:42:00,
2013-08-14 14:48:00,93.6,78.1,29.90,WSW,251,0.0,15.0,61,0.00,,---,0.00,VWS V12.08,2013-08-14 18:48:00,
2013-08-14 14:53:00,94.2,78.2,29.89,WSW,257,0.0,15.0,60,0.00,,---,0.00,VWS V12.08,2013-08-14 18:53:00,
2013-08-14 14:58:00,94.4,77.9,29.89,WSW,250,6.0,15.0,59,0.00,,---,0.00,VWS V12.08,2013-08-14 18:58:00,
2013-08-14 15:03:00,94.7,78.7,29.89,WSW,250,0.0,15.0,60,0.00,,---,0.00,VWS V12.08,2013-08-14 19:03:00,
2013-08-14 15:08:00,95.2,78.1,29.89,WSW,254,1.0,15.0,58,0.00,,---,0.00,VWS V12.08,2013-08-14 19:08:00,
2013-08-14 15:13:00,95.3,77.7,29.88,WSW,240,2.0,15.0,57,0.00,,---,0.00,VWS V12.08,2013-08-14 19:13:00,
2013-08-14 15:18:00,95.1,78.0,29.88,WSW,257,1.0,15.0,58,0.00,,---,0.00,VWS V12.08,2013-08-14 19:18:00,
2013-08-14 15:23:00,95.1,78.5,29.88,WNW,293,1.0,15.0,59,0.00,,---,0.00,VWS V12.08,2013-08-14 19:23:00,
2013-08-14 15:29:00,95.0,78.4,29.87,WNW,293,2.0,15.0,59,0.00,,---,0.00,VWS V12.08,2013-08-14 19:29:00,
2013-08-14 15:34:00,94.8,77.7,29.86,WNW,296,0.0,15.0,58,0.00,,---,0.00,VWS V12.08,2013-08-14 19:34:00,
2013-08-14 15:39:00,94.8,78.8,29.86,WNW,296,1.0,15.0,60,0.00,,---,0.00,VWS V12.08,2013-08-14 19:39:00,
2013-08-14 15:45:00,94.8,77.7,29.86,NW,304,0.0,15.0,58,0.00,,---,0.00,VWS V12.08,2013-08-14 19:45:00,
2013-08-14 15:50:00,94.5,77.4,29.87,NW,304,0.0,15.0,58,0.00,,---,0.00,VWS V12.08,2013-08-14 19:50:00,
2013-08-14 15:55:00,94.0,77.0,29.87,WNW,293,4.0,15.0,58,0.00,,---,0.00,VWS V12.08,2013-08-14 19:55:00,
2013-08-14 16:00:00,93.4,76.4,29.87,WNW,287,0.0,15.0,58,0.00,,---,0.00,VWS V12.08,2013-08-14 20:00:00,
2013-08-14 16:05:00,92.9,77.5,29.87,West,278,6.0,15.0,61,0.00,,---,0.00,VWS V12.08,2013-08-14 20:05:00,
2013-08-14 16:10:00,92.2,76.8,29.87,West,264,1.0,15.0,61,0.00,,---,0.00,VWS V12.08,2013-08-14 20:10:00,
2013-08-14 16:15:00,91.8,77.4,29.87,West,263,6.0,15.0,63,0.00,,---,0.00,VWS V12.08,2013-08-14 20:15:00,
2013-08-14 16:21:00,90.0,76.7,29.88,SSW,193,13.0,20.0,65,0.00,,---,0.00,VWS V12.08,2013-08-14 20:21:00,
2013-08-14 16:28:00,84.3,75.9,29.87,SW,232,18.0,21.0,76,0.00,,---,0.00,VWS V12.08,2013-08-14 20:28:00,
2013-08-14 16:33:00,81.3,75.3,29.88,SW,223,10.0,21.0,82,0.00,,---,0.00,VWS V12.08,2013-08-14 20:33:00,
2013-08-14 16:39:00,80.0,75.1,29.88,SW,229,4.0,21.0,85,0.00,,---,0.00,VWS V12.08,2013-08-14 20:39:00,
2013-08-14 16:45:00,79.4,74.5,29.89,SW,217,5.0,21.0,85,0.00,,---,0.00,VWS V12.08,2013-08-14 20:45:00,
2013-08-14 16:50:00,78.9,74.0,29.89,SSW,209,4.0,21.0,85,0.00,,---,0.00,VWS V12.08,2013-08-14 20:50:00,
2013-08-14 16:55:00,78.7,74.2,29.88,SSW,209,4.0,21.0,86,0.00,,---,0.00,VWS V12.08,2013-08-14 20:55:00,
2013-08-14 17:01:00,78.1,73.2,29.88,SW,225,1.0,21.0,85,0.00,,---,0.00,VWS V12.08,2013-08-14 21:01:00,
2013-08-14 17:06:00,77.8,73.3,29.88,SW,235,6.0,21.0,86,0.00,,---,0.00,VWS V12.08,2013-08-14 21:06:00,
2013-08-14 17:11:00,77.4,73.2,29.88,SSW,202,0.0,21.0,87,0.00,,---,0.00,VWS V12.08,2013-08-14 21:11:00,
2013-08-14 17:16:00,77.2,73.4,29.90,SE,130,8.0,21.0,88,0.00,,---,0.00,VWS V12.08,2013-08-14 21:16:00,
2013-08-14 17:21:00,77.0,73.2,29.91,SE,136,7.0,21.0,88,0.00,,---,0.00,VWS V12.08,2013-08-14 21:21:00,
2013-08-14 17:26:00,77.0,73.5,29.91,SE,142,10.0,21.0,89,0.00,,---,0.00,VWS V12.08,2013-08-14 21:26:00,
2013-08-14 17:31:00,77.3,74.1,29.91,SE,144,7.0,21.0,90,0.00,,---,0.00,VWS V12.08,2013-08-14 21:31:00,
2013-08-14 17:36:00,77.5,74.0,29.92,SSE,150,1.0,21.0,89,0.00,,---,0.00,VWS V12.08,2013-08-14 21:36:00,
2013-08-14 17:41:00,77.7,73.9,29.91,SSE,164,2.0,21.0,88,0.00,,---,0.00,VWS V12.08,2013-08-14 21:41:00,
2013-08-14 17:46:00,77.8,74.0,29.91,SSE,160,0.0,21.0,88,0.00,,---,0.00,VWS V12.08,2013-08-14 21:46:00,
2013-08-14 17:51:00,77.9,73.7,29.90,SSE,165,0.0,21.0,87,0.00,,---,0.00,VWS V12.08,2013-08-14 21:51:00,
2013-08-14 17:56:00,78.1,74.3,29.90,SSE,157,0.0,21.0,88,0.00,,---,0.00,VWS V12.08,2013-08-14 21:56:00,
2013-08-14 18:01:00,78.2,74.4,29.90,SSE,158,6.0,21.0,88,0.00,,---,0.00,VWS V12.08,2013-08-14 22:01:00,
2013-08-14 18:06:00,78.4,74.2,29.91,SSE,163,4.0,21.0,87,0.00,,---,0.00,VWS V12.08,2013-08-14 22:06:00,
2013-08-14 18:11:00,78.6,74.4,29.91,SSE,165,5.0,21.0,87,0.00,,---,0.00,VWS V12.08,2013-08-14 22:11:00,
2013-08-14 18:16:00,78.7,74.5,29.91,SSE,165,4.0,21.0,87,0.00,,---,0.00,VWS V12.08,2013-08-14 22:16:00,
2013-08-14 18:21:00,78.8,74.6,29.91,South,188,6.0,21.0,87,0.00,,---,0.00,VWS V12.08,2013-08-14 22:21:00,
2013-08-14 18:26:00,78.9,74.7,29.91,SW,220,3.0,21.0,87,0.00,,---,0.00,VWS V12.08,2013-08-14 22:26:00,
2013-08-14 18:32:00,79.0,74.8,29.91,SW,220,0.0,21.0,87,0.00,,---,0.00,VWS V12.08,2013-08-14 22:32:00,
2013-08-14 18:37:00,79.0,75.2,29.92,SW,220,0.0,21.0,88,0.00,,---,0.00,VWS V12.08,2013-08-14 22:37:00,
2013-08-14 18:42:00,79.1,75.2,29.92,SW,220,0.0,21.0,88,0.00,,---,0.00,VWS V12.08,2013-08-14 22:42:00,
2013-08-14 18:47:00,79.3,75.1,29.92,SW,220,0.0,21.0,87,0.00,,---,0.00,VWS V12.08,2013-08-14 22:47:00,
2013-08-14 18:52:00,79.3,75.1,29.92,SW,220,0.0,21.0,87,0.00,,---,0.00,VWS V12.08,2013-08-14 22:52:00,
2013-08-14 18:57:00,79.4,75.2,29.92,SW,220,0.0,21.0,87,0.00,,---,0.00,VWS V12.08,2013-08-14 22:57:00,
2013-08-14 19:03:00,79.5,75.6,29.92,SW,220,3.0,21.0,88,0.00,,---,0.00,VWS V12.08,2013-08-14 23:03:00,
2013-08-14 19:08:00,79.6,75.7,29.92,SW,218,4.0,21.0,88,0.00,,---,0.00,VWS V12.08,2013-08-14 23:08:00,
2013-08-14 19:13:00,79.4,75.2,29.92,SSW,209,2.0,21.0,87,0.00,,---,0.00,VWS V12.08,2013-08-14 23:13:00,
2013-08-14 19:18:00,79.3,75.1,29.92,SSW,202,3.0,21.0,87,0.00,,---,0.00,VWS V12.08,2013-08-14 23:18:00,
2013-08-14 19:23:00,79.1,74.6,29.92,SSW,202,1.0,21.0,86,0.00,,---,0.00,VWS V12.08,2013-08-14 23:23:00,
2013-08-14 19:28:00,79.1,74.9,29.92,SSW,206,0.0,21.0,87,0.00,,---,0.00,VWS V12.08,2013-08-14 23:28:00,
2013-08-14 19:33:00,79.1,75.2,29.92,SSW,206,0.0,21.0,88,0.00,,---,0.00,VWS V12.08,2013-08-14 23:33:00,
2013-08-14 19:38:00,79.1,74.9,29.92,SSW,212,3.0,21.0,87,0.00,,---,0.00,VWS V12.08,2013-08-14 23:38:00,
2013-08-14 19:43:00,79.0,75.2,29.93,SW,215,1.0,21.0,88,0.00,,---,0.00,VWS V12.08,2013-08-14 23:43:00,
2013-08-14 19:48:00,78.9,75.1,29.92,SW,218,0.0,21.0,88,0.00,,---,0.00,VWS V12.08,2013-08-14 23:48:00,
2013-08-14 19:53:00,78.8,74.9,29.92,SW,218,2.0,21.0,88,0.00,,---,0.00,VWS V12.08,2013-08-14 23:53:00,
2013-08-14 19:58:00,78.7,75.2,29.92,SW,218,0.0,21.0,89,0.00,,---,0.00,VWS V12.08,2013-08-14 23:58:00,
2013-08-14 20:04:00,78.7,75.2,29.92,SW,218,0.0,21.0,89,0.00,,---,0.00,VWS V12.08,2013-08-15 00:04:00,
2013-08-14 20:09:00,78.7,75.2,29.92,SW,218,0.0,21.0,89,0.00,,---,0.00,VWS V12.08,2013-08-15 00:09:00,
2013-08-14 20:14:00,78.7,75.2,29.93,SW,218,0.0,21.0,89,0.00,,---,0.00,VWS V12.08,2013-08-15 00:14:00,
2013-08-14 20:19:00,78.7,75.5,29.93,SW,218,0.0,21.0,90,0.00,,---,0.00,VWS V12.08,2013-08-15 00:19:00,
2013-08-14 20:24:00,78.7,75.5,29.93,SW,218,0.0,21.0,90,0.00,,---,0.00,VWS V12.08,2013-08-15 00:24:00,
2013-08-14 20:29:00,78.7,75.5,29.93,SW,218,0.0,21.0,90,0.00,,---,0.00,VWS V12.08,2013-08-15 00:29:00,
2013-08-14 20:34:00,78.7,75.5,29.94,SW,218,0.0,21.0,90,0.00,,---,0.00,VWS V12.08,2013-08-15 00:34:00,
2013-08-14 20:39:00,78.7,75.5,29.94,SW,218,0.0,21.0,90,0.00,,---,0.00,VWS V12.08,2013-08-15 00:39:00,
2013-08-14 20:44:00,78.5,75.3,29.94,SW,218,0.0,21.0,90,0.00,,---,0.00,VWS V12.08,2013-08-15 00:44:00,
2013-08-14 20:49:00,78.4,75.2,29.94,SW,218,0.0,21.0,90,0.00,,---,0.00,VWS V12.08,2013-08-15 00:49:00,
2013-08-14 20:54:00,78.3,75.5,29.95,SW,218,0.0,21.0,91,0.00,,---,0.00,VWS V12.08,2013-08-15 00:54:00,
2013-08-14 20:59:00,78.2,75.4,29.94,SW,218,0.0,21.0,91,0.00,,---,0.00,VWS V12.08,2013-08-15 00:59:00,
2013-08-14 21:04:00,78.0,75.2,29.94,SW,218,0.0,21.0,91,0.00,,---,0.00,VWS V12.08,2013-08-15 01:04:00,
2013-08-14 21:09:00,77.9,75.1,29.94,SW,218,0.0,21.0,91,0.00,,---,0.00,VWS V12.08,2013-08-15 01:09:00,
2013-08-14 21:14:00,77.8,75.0,29.94,SW,218,0.0,21.0,91,0.00,,---,0.00,VWS V12.08,2013-08-15 01:14:00,
2013-08-14 21:19:00,77.6,74.8,29.95,SW,218,0.0,21.0,91,0.00,,---,0.00,VWS V12.08,2013-08-15 01:19:00,
2013-08-14 21:24:00,77.6,75.1,29.95,SW,218,0.0,21.0,92,0.00,,---,0.00,VWS V12.08,2013-08-15 01:24:00,
2013-08-14 21:29:00,77.5,75.0,29.96,SW,218,3.0,21.0,92,0.00,,---,0.00,VWS V12.08,2013-08-15 01:29:00,
2013-08-14 21:34:00,77.3,74.8,29.95,SW,218,2.0,21.0,92,0.00,,---,0.00,VWS V12.08,2013-08-15 01:34:00,
2013-08-14 21:39:00,77.1,74.6,29.95,SW,218,0.0,21.0,92,0.00,,---,0.00,VWS V12.08,2013-08-15 01:39:00,
2013-08-14 21:44:00,77.0,74.5,29.96,SW,218,0.0,21.0,92,0.00,,---,0.00,VWS V12.08,2013-08-15 01:44:00,
2013-08-14 21:49:00,76.9,74.4,29.96,SW,218,0.0,21.0,92,0.00,,---,0.00,VWS V12.08,2013-08-15 01:49:00,
2013-08-14 21:54:00,76.9,74.7,29.96,SW,218,0.0,21.0,93,0.00,,---,0.00,VWS V12.08,2013-08-15 01:54:00,
2013-08-14 21:59:00,76.9,74.4,29.96,SW,218,0.0,21.0,92,0.00,,---,0.00,VWS V12.08,2013-08-15 01:59:00,
2013-08-14 22:04:00,76.8,74.6,29.96,SW,218,0.0,21.0,93,0.00,,---,0.00,VWS V12.08,2013-08-15 02:04:00,
2013-08-14 22:09:00,76.7,74.5,29.96,SW,218,0.0,21.0,93,0.00,,---,0.00,VWS V12.08,2013-08-15 02:09:00,
2013-08-14 22:14:00,76.7,74.5,29.96,SW,218,0.0,21.0,93,0.00,,---,0.00,VWS V12.08,2013-08-15 02:14:00,
2013-08-14 22:19:00,76.7,74.5,29.97,SW,218,0.0,21.0,93,0.00,,---,0.00,VWS V12.08,2013-08-15 02:19:00,
2013-08-14 22:24:00,76.6,74.4,29.97,SW,218,0.0,21.0,93,0.00,,---,0.00,VWS V12.08,2013-08-15 02:24:00,
2013-08-14 22:29:00,76.4,74.2,29.97,SW,218,0.0,21.0,93,0.00,,---,0.00,VWS V12.08,2013-08-15 02:29:00,
2013-08-14 22:34:00,76.4,74.6,29.97,SW,218,0.0,21.0,94,0.00,,---,0.00,VWS V12.08,2013-08-15 02:34:00,
2013-08-14 22:39:00,76.4,74.6,29.97,SW,218,0.0,21.0,94,0.00,,---,0.00,VWS V12.08,2013-08-15 02:39:00,
2013-08-14 22:44:00,76.3,74.4,29.97,SW,218,0.0,21.0,94,0.00,,---,0.00,VWS V12.08,2013-08-15 02:44:00,
2013-08-14 22:49:00,76.2,74.0,29.98,SW,218,0.0,21.0,93,0.00,,---,0.00,VWS V12.08,2013-08-15 02:49:00,
2013-08-14 22:54:00,76.1,74.2,29.98,SW,218,0.0,21.0,94,0.00,,---,0.00,VWS V12.08,2013-08-15 02:54:00,
2013-08-14 22:59:00,76.0,74.2,29.98,SW,218,0.0,21.0,94,0.00,,---,0.00,VWS V12.08,2013-08-15 02:59:00,
2013-08-14 23:04:00,75.9,74.1,29.98,SW,218,0.0,21.0,94,0.00,,---,0.00,VWS V12.08,2013-08-15 03:04:00,
2013-08-14 23:09:00,75.9,74.1,29.98,SW,218,0.0,21.0,94,0.00,,---,0.00,VWS V12.08,2013-08-15 03:09:00,
2013-08-14 23:14:00,75.8,73.9,29.98,SW,218,0.0,21.0,94,0.00,,---,0.00,VWS V12.08,2013-08-15 03:14:00,
2013-08-14 23:19:00,75.6,73.8,29.99,SW,218,0.0,21.0,94,0.00,,---,0.00,VWS V12.08,2013-08-15 03:19:00,
2013-08-14 23:24:00,75.5,73.7,29.99,SW,218,0.0,21.0,94,0.00,,---,0.00,VWS V12.08,2013-08-15 03:24:00,
2013-08-14 23:29:00,75.5,73.7,29.98,SW,218,0.0,21.0,94,0.00,,---,0.00,VWS V12.08,2013-08-15 03:29:00,
2013-08-14 23:34:00,75.4,73.6,29.99,SW,218,0.0,21.0,94,0.00,,---,0.00,VWS V12.08,2013-08-15 03:34:00,
2013-08-14 23:39:00,75.4,73.6,29.99,SW,218,0.0,21.0,94,0.00,,---,0.00,VWS V12.08,2013-08-15 03:39:00,
2013-08-14 23:44:00,75.3,73.5,29.99,SW,218,0.0,21.0,94,0.00,,---,0.00,VWS V12.08,2013-08-15 03:44:00,
2013-08-14 23:49:00,75.3,73.8,29.99,SW,218,0.0,21.0,95,0.00,,---,0.00,VWS V12.08,2013-08-15 03:49:00,
2013-08-14 23:54:00,75.3,73.8,29.99,SW,218,0.0,21.0,95,0.00,,---,0.00,VWS V12.08,2013-08-15 03:54:00,
2013-08-14 23:59:00,75.4,73.9,29.99,SW,218,0.0,21.0,95,0.00,,---,0.00,VWS V12.08,2013-08-15 03:59:00,